sensor_id;sensor_type;location;lat;lon;timestamp;pressure;altitude;pressure_sealevel;temperature;humidity
15880;BME280;61999;51.514;14.614;2023-01-27T00:01:08;100443.59;;;-4.06;63.17
15880;BME280;61999;51.514;14.614;2023-01-27T00:03:36;100436.44;;;-3.82;63.18
15880;BME280;61999;51.514;14.614;2023-01-27T00:06:05;100438.00;;;-3.72;62.71
15880;BME280;61999;51.514;14.614;2023-01-27T00:08:39;100429.94;;;-3.48;62.12
15880;BME280;61999;51.514;14.614;2023-01-27T00:11:07;100427.63;;;-3.66;61.97
15880;BME280;61999;51.514;14.614;2023-01-27T00:13:55;100433.03;;;-3.84;61.61
15880;BME280;61999;51.514;14.614;2023-01-27T00:16:23;100421.38;;;-4.13;61.70
15880;BME280;61999;51.514;14.614;2023-01-27T00:18:51;100424.75;;;-4.11;63.49
15880;BME280;61999;51.514;14.614;2023-01-27T00:21:19;100421.63;;;-3.68;61.66
15880;BME280;61999;51.514;14.614;2023-01-27T00:24:10;100421.72;;;-3.74;61.68
15880;BME280;61999;51.514;14.614;2023-01-27T00:26:57;100420.78;;;-3.67;61.33
15880;BME280;61999;51.514;14.614;2023-01-27T00:29:25;100428.38;;;-3.58;61.03
15880;BME280;61999;51.514;14.614;2023-01-27T00:31:53;100422.31;;;-3.57;61.36
15880;BME280;61999;51.514;14.614;2023-01-27T00:34:38;100421.63;;;-3.68;60.62
15880;BME280;61999;51.514;14.614;2023-01-27T00:37:11;100426.72;;;-3.63;60.57
15880;BME280;61999;51.514;14.614;2023-01-27T00:39:41;100420.59;;;-3.55;60.42
15880;BME280;61999;51.514;14.614;2023-01-27T00:42:09;100423.16;;;-3.53;60.67
15880;BME280;61999;51.514;14.614;2023-01-27T00:44:37;100430.47;;;-3.86;62.03
15880;BME280;61999;51.514;14.614;2023-01-27T00:47:25;100427.09;;;-3.91;61.93
15880;BME280;61999;51.514;14.614;2023-01-27T00:49:53;100436.75;;;-3.43;60.85
15880;BME280;61999;51.514;14.614;2023-01-27T00:52:21;100436.09;;;-3.59;60.66
15880;BME280;61999;51.514;14.614;2023-01-27T00:54:50;100437.75;;;-3.54;60.88
15880;BME280;61999;51.514;14.614;2023-01-27T00:57:18;100434.41;;;-4.27;62.95
15880;BME280;61999;51.514;14.614;2023-01-27T00:59:46;100441.53;;;-3.76;62.02
15880;BME280;61999;51.514;14.614;2023-01-27T01:02:14;100446.16;;;-3.42;60.84
15880;BME280;61999;51.514;14.614;2023-01-27T01:04:42;100443.22;;;-3.75;61.15
15880;BME280;61999;51.514;14.614;2023-01-27T01:07:10;100446.00;;;-3.94;61.96
15880;BME280;61999;51.514;14.614;2023-01-27T01:09:38;100446.19;;;-4.06;62.46
15880;BME280;61999;51.514;14.614;2023-01-27T01:12:07;100448.84;;;-4.15;62.28
15880;BME280;61999;51.514;14.614;2023-01-27T01:14:35;100451.50;;;-4.21;62.70
15880;BME280;61999;51.514;14.614;2023-01-27T01:17:03;100452.75;;;-3.83;61.53
15880;BME280;61999;51.514;14.614;2023-01-27T01:19:31;100454.84;;;-3.47;60.83
15880;BME280;61999;51.514;14.614;2023-01-27T01:21:59;100458.16;;;-3.38;60.08
15880;BME280;61999;51.514;14.614;2023-01-27T01:24:28;100452.53;;;-3.68;60.48
15880;BME280;61999;51.514;14.614;2023-01-27T01:26:56;100455.16;;;-3.71;60.58
15880;BME280;61999;51.514;14.614;2023-01-27T01:29:26;100456.13;;;-3.78;60.61
15880;BME280;61999;51.514;14.614;2023-01-27T01:31:54;100451.06;;;-3.86;61.30
15880;BME280;61999;51.514;14.614;2023-01-27T01:34:22;100464.50;;;-3.62;61.07
15880;BME280;61999;51.514;14.614;2023-01-27T01:36:50;100460.28;;;-3.68;61.07
15880;BME280;61999;51.514;14.614;2023-01-27T01:39:18;100450.56;;;-3.48;60.66
15880;BME280;61999;51.514;14.614;2023-01-27T01:41:46;100451.84;;;-3.19;59.63
15880;BME280;61999;51.514;14.614;2023-01-27T01:44:20;100454.69;;;-3.37;59.59
15880;BME280;61999;51.514;14.614;2023-01-27T01:46:49;100454.31;;;-3.72;60.06
15880;BME280;61999;51.514;14.614;2023-01-27T01:49:21;100451.50;;;-3.55;59.57
15880;BME280;61999;51.514;14.614;2023-01-27T01:51:54;100456.78;;;-3.64;60.16
15880;BME280;61999;51.514;14.614;2023-01-27T01:54:26;100457.78;;;-3.74;60.20
15880;BME280;61999;51.514;14.614;2023-01-27T01:57:02;100460.03;;;-3.50;59.65
15880;BME280;61999;51.514;14.614;2023-01-27T01:59:37;100459.69;;;-3.87;61.82
15880;BME280;61999;51.514;14.614;2023-01-27T02:02:12;100457.63;;;-3.62;60.25
15880;BME280;61999;51.514;14.614;2023-01-27T02:04:46;100467.09;;;-3.64;59.98
15880;BME280;61999;51.514;14.614;2023-01-27T02:07:24;100457.81;;;-3.76;60.35
15880;BME280;61999;51.514;14.614;2023-01-27T02:09:55;100459.56;;;-3.78;59.81
15880;BME280;61999;51.514;14.614;2023-01-27T02:12:25;100467.81;;;-3.53;59.77
15880;BME280;61999;51.514;14.614;2023-01-27T02:14:53;100464.31;;;-3.49;59.76
15880;BME280;61999;51.514;14.614;2023-01-27T02:17:23;100460.66;;;-3.97;60.87
15880;BME280;61999;51.514;14.614;2023-01-27T02:20:02;100463.81;;;-3.75;60.58
15880;BME280;61999;51.514;14.614;2023-01-27T02:22:40;100465.50;;;-3.74;60.86
15880;BME280;61999;51.514;14.614;2023-01-27T02:25:20;100466.72;;;-3.39;60.03
15880;BME280;61999;51.514;14.614;2023-01-27T02:27:51;100458.44;;;-3.60;59.91
15880;BME280;61999;51.514;14.614;2023-01-27T02:30:19;100464.50;;;-3.62;60.65
15880;BME280;61999;51.514;14.614;2023-01-27T02:32:47;100470.28;;;-3.47;59.78
15880;BME280;61999;51.514;14.614;2023-01-27T02:35:22;100471.81;;;-3.33;59.99
15880;BME280;61999;51.514;14.614;2023-01-27T02:37:52;100467.31;;;-3.19;59.31
15880;BME280;61999;51.514;14.614;2023-01-27T02:40:22;100460.16;;;-3.03;58.43
15880;BME280;61999;51.514;14.614;2023-01-27T02:42:54;100463.53;;;-3.00;58.59
15880;BME280;61999;51.514;14.614;2023-01-27T02:45:23;100469.38;;;-2.88;57.98
15880;BME280;61999;51.514;14.614;2023-01-27T02:47:51;100465.16;;;-2.92;58.01
15880;BME280;61999;51.514;14.614;2023-01-27T02:50:19;100466.00;;;-2.93;57.70
15880;BME280;61999;51.514;14.614;2023-01-27T02:52:47;100473.00;;;-2.98;57.71
15880;BME280;61999;51.514;14.614;2023-01-27T02:55:15;100477.06;;;-2.85;57.75
15880;BME280;61999;51.514;14.614;2023-01-27T02:57:43;100468.63;;;-2.96;57.24
15880;BME280;61999;51.514;14.614;2023-01-27T03:00:14;100474.31;;;-3.29;58.20
15880;BME280;61999;51.514;14.614;2023-01-27T03:02:42;100478.28;;;-3.08;58.00
15880;BME280;61999;51.514;14.614;2023-01-27T03:05:10;100475.69;;;-3.08;58.27
15880;BME280;61999;51.514;14.614;2023-01-27T03:07:39;100469.38;;;-2.88;57.71
15880;BME280;61999;51.514;14.614;2023-01-27T03:10:09;100465.84;;;-2.83;57.28
15880;BME280;61999;51.514;14.614;2023-01-27T03:20:50;100477.47;;;-3.10;57.87
15880;BME280;61999;51.514;14.614;2023-01-27T03:23:18;100481.56;;;-2.98;57.23
15880;BME280;61999;51.514;14.614;2023-01-27T03:25:47;100481.75;;;-3.09;57.11
15880;BME280;61999;51.514;14.614;2023-01-27T03:28:15;100484.38;;;-3.12;57.10
15880;BME280;61999;51.514;14.614;2023-01-27T03:30:43;100490.97;;;-2.94;57.15
15880;BME280;61999;51.514;14.614;2023-01-27T03:33:11;100494.25;;;-2.84;56.94
15880;BME280;61999;51.514;14.614;2023-01-27T03:35:39;100493.56;;;-2.95;56.78
15880;BME280;61999;51.514;14.614;2023-01-27T03:38:15;100496.78;;;-2.81;56.49
15880;BME280;61999;51.514;14.614;2023-01-27T03:41:02;100496.63;;;-2.72;56.96
15880;BME280;61999;51.514;14.614;2023-01-27T03:43:48;100494.81;;;-2.67;56.73
15880;BME280;61999;51.514;14.614;2023-01-27T03:46:34;100488.88;;;-2.72;56.99
15880;BME280;61999;51.514;14.614;2023-01-27T03:49:02;100491.34;;;-2.66;56.45
15880;BME280;61999;51.514;14.614;2023-01-27T03:51:30;100494.75;;;-2.64;56.32
15880;BME280;61999;51.514;14.614;2023-01-27T03:53:59;100493.75;;;-2.57;56.69
15880;BME280;61999;51.514;14.614;2023-01-27T03:56:27;100486.84;;;-2.53;56.77
15880;BME280;61999;51.514;14.614;2023-01-27T03:58:55;100493.16;;;-3.24;57.18
15880;BME280;61999;51.514;14.614;2023-01-27T04:01:23;100501.63;;;-3.17;57.98
15880;BME280;61999;51.514;14.614;2023-01-27T04:03:51;100495.03;;;-3.33;58.18
15880;BME280;61999;51.514;14.614;2023-01-27T04:06:40;100492.81;;;-3.61;58.34
15880;BME280;61999;51.514;14.614;2023-01-27T04:09:28;100493.06;;;-3.17;58.36
15880;BME280;61999;51.514;14.614;2023-01-27T04:11:59;100489.41;;;-3.04;57.71
15880;BME280;61999;51.514;14.614;2023-01-27T04:14:29;100491.06;;;-2.98;57.39
15880;BME280;61999;51.514;14.614;2023-01-27T04:17:00;100487.06;;;-3.18;57.00
15880;BME280;61999;51.514;14.614;2023-01-27T04:19:29;100488.00;;;-3.24;57.52
15880;BME280;61999;51.514;14.614;2023-01-27T04:21:59;100484.47;;;-3.19;57.05
15880;BME280;61999;51.514;14.614;2023-01-27T04:24:29;100487.66;;;-3.02;57.04
15880;BME280;61999;51.514;14.614;2023-01-27T04:26:59;100488.53;;;-3.02;56.63
15880;BME280;61999;51.514;14.614;2023-01-27T04:29:29;100487.25;;;-3.30;56.88
15880;BME280;61999;51.514;14.614;2023-01-27T04:32:01;100486.53;;;-3.41;57.32
15880;BME280;61999;51.514;14.614;2023-01-27T04:34:30;100488.84;;;-3.86;57.63
15880;BME280;61999;51.514;14.614;2023-01-27T04:36:59;100485.72;;;-3.43;57.67
15880;BME280;61999;51.514;14.614;2023-01-27T04:39:28;100488.84;;;-3.23;56.80
15880;BME280;61999;51.514;14.614;2023-01-27T04:41:57;100497.47;;;-3.26;56.35
15880;BME280;61999;51.514;14.614;2023-01-27T04:44:25;100495.53;;;-3.10;56.88
15880;BME280;61999;51.514;14.614;2023-01-27T04:46:54;100497.38;;;-3.18;56.42
15880;BME280;61999;51.514;14.614;2023-01-27T04:49:22;100499.25;;;-3.29;56.62
15880;BME280;61999;51.514;14.614;2023-01-27T04:51:52;100494.69;;;-3.12;56.11
15880;BME280;61999;51.514;14.614;2023-01-27T04:54:20;100493.75;;;-3.08;56.17
15880;BME280;61999;51.514;14.614;2023-01-27T04:56:58;100502.53;;;-3.18;55.86
15880;BME280;61999;51.514;14.614;2023-01-27T04:59:27;100494.22;;;-3.38;56.19
15880;BME280;61999;51.514;14.614;2023-01-27T05:01:55;100501.63;;;-3.17;56.38
15880;BME280;61999;51.514;14.614;2023-01-27T05:04:23;100500.78;;;-3.16;56.25
15880;BME280;61999;51.514;14.614;2023-01-27T05:06:52;100507.94;;;-3.36;56.37
15880;BME280;61999;51.514;14.614;2023-01-27T05:09:21;100502.16;;;-3.52;56.83
15880;BME280;61999;51.514;14.614;2023-01-27T05:11:49;100503.78;;;-3.47;56.73
15880;BME280;61999;51.514;14.614;2023-01-27T05:14:19;100503.34;;;-3.78;56.98
15880;BME280;61999;51.514;14.614;2023-01-27T05:16:49;100502.16;;;-3.52;56.91
15880;BME280;61999;51.514;14.614;2023-01-27T05:19:17;100507.69;;;-3.18;56.99
15880;BME280;61999;51.514;14.614;2023-01-27T05:21:45;100505.84;;;-3.10;56.41
15880;BME280;61999;51.514;14.614;2023-01-27T05:24:13;100513.38;;;-2.96;55.82
15880;BME280;61999;51.514;14.614;2023-01-27T05:26:41;100517.56;;;-2.90;56.08
15880;BME280;61999;51.514;14.614;2023-01-27T05:29:09;100507.16;;;-2.84;55.83
15880;BME280;61999;51.514;14.614;2023-01-27T05:31:39;100520.16;;;-2.90;55.35
15880;BME280;61999;51.514;14.614;2023-01-27T05:34:08;100525.31;;;-2.92;55.95
15880;BME280;61999;51.514;14.614;2023-01-27T05:36:36;100519.16;;;-2.83;55.90
15880;BME280;61999;51.514;14.614;2023-01-27T05:39:04;100520.91;;;-2.84;55.28
15880;BME280;61999;51.514;14.614;2023-01-27T05:41:34;100520.84;;;-2.81;55.29
15880;BME280;61999;51.514;14.614;2023-01-27T05:44:03;100534.53;;;-2.77;55.64
15880;BME280;61999;51.514;14.614;2023-01-27T05:46:32;100528.66;;;-2.85;55.57
15880;BME280;61999;51.514;14.614;2023-01-27T05:49:03;100519.53;;;-3.05;55.76
15880;BME280;61999;51.514;14.614;2023-01-27T05:51:35;100527.91;;;-3.52;56.24
15880;BME280;61999;51.514;14.614;2023-01-27T05:54:03;100531.66;;;-3.13;56.49
15880;BME280;61999;51.514;14.614;2023-01-27T05:56:32;100540.25;;;-3.14;56.02
15880;BME280;61999;51.514;14.614;2023-01-27T05:59:00;100533.16;;;-2.98;55.88
15880;BME280;61999;51.514;14.614;2023-01-27T06:01:31;100539.22;;;-2.99;55.89
15880;BME280;61999;51.514;14.614;2023-01-27T06:04:02;100533.31;;;-3.09;55.64
15880;BME280;61999;51.514;14.614;2023-01-27T06:06:32;100534.91;;;-2.98;55.74
15880;BME280;61999;51.514;14.614;2023-01-27T06:09:01;100532.22;;;-2.92;55.20
15880;BME280;61999;51.514;14.614;2023-01-27T06:11:29;100538.16;;;-2.87;55.20
15880;BME280;61999;51.514;14.614;2023-01-27T06:13:57;100545.81;;;-2.83;55.30
15880;BME280;61999;51.514;14.614;2023-01-27T06:16:24;100546.16;;;-3.06;55.35
15880;BME280;61999;51.514;14.614;2023-01-27T06:18:52;100545.25;;;-3.02;55.48
15880;BME280;61999;51.514;14.614;2023-01-27T06:21:22;100543.44;;;-2.96;55.67
15880;BME280;61999;51.514;14.614;2023-01-27T06:23:50;100542.69;;;-3.03;55.59
15880;BME280;61999;51.514;14.614;2023-01-27T06:26:19;100540.63;;;-3.38;56.82
15880;BME280;61999;51.514;14.614;2023-01-27T06:28:47;100539.03;;;-3.49;56.74
15880;BME280;61999;51.514;14.614;2023-01-27T06:31:19;100542.97;;;-3.21;56.71
15880;BME280;61999;51.514;14.614;2023-01-27T06:33:48;100545.22;;;-2.98;55.96
15880;BME280;61999;51.514;14.614;2023-01-27T06:36:21;100545.94;;;-2.90;55.84
15880;BME280;61999;51.514;14.614;2023-01-27T06:38:49;100544.22;;;-2.90;55.28
15880;BME280;61999;51.514;14.614;2023-01-27T06:41:17;100551.88;;;-2.85;55.62
15880;BME280;61999;51.514;14.614;2023-01-27T06:43:45;100558.75;;;-2.84;55.22
15880;BME280;61999;51.514;14.614;2023-01-27T06:46:13;100560.63;;;-2.95;55.10
15880;BME280;61999;51.514;14.614;2023-01-27T06:48:41;100567.63;;;-3.04;55.32
15880;BME280;61999;51.514;14.614;2023-01-27T06:51:09;100565.38;;;-3.27;56.75
15880;BME280;61999;51.514;14.614;2023-01-27T06:53:39;100573.28;;;-3.39;56.43
15880;BME280;61999;51.514;14.614;2023-01-27T06:56:07;100561.25;;;-3.38;56.83
15880;BME280;61999;51.514;14.614;2023-01-27T06:58:35;100572.50;;;-3.44;57.31
15880;BME280;61999;51.514;14.614;2023-01-27T07:01:04;100573.75;;;-3.11;56.56
15880;BME280;61999;51.514;14.614;2023-01-27T07:03:33;100565.97;;;-3.08;56.32
15880;BME280;61999;51.514;14.614;2023-01-27T07:06:00;100565.78;;;-2.95;55.57
15880;BME280;61999;51.514;14.614;2023-01-27T07:08:28;100577.06;;;-3.01;55.85
15880;BME280;61999;51.514;14.614;2023-01-27T07:11:01;100571.44;;;-3.29;56.19
15880;BME280;61999;51.514;14.614;2023-01-27T07:13:30;100567.69;;;-3.07;56.56
15880;BME280;61999;51.514;14.614;2023-01-27T07:15:58;100574.13;;;-3.38;57.75
15880;BME280;61999;51.514;14.614;2023-01-27T07:18:27;100571.00;;;-3.63;57.47
15880;BME280;61999;51.514;14.614;2023-01-27T07:20:55;100571.81;;;-3.60;58.31
15880;BME280;61999;51.514;14.614;2023-01-27T07:23:23;100571.34;;;-3.21;57.68
15880;BME280;61999;51.514;14.614;2023-01-27T07:25:51;100574.63;;;-3.12;56.88
15880;BME280;61999;51.514;14.614;2023-01-27T07:28:20;100571.41;;;-3.28;56.89
15880;BME280;61999;51.514;14.614;2023-01-27T07:30:48;100561.16;;;-3.32;56.65
15880;BME280;61999;51.514;14.614;2023-01-27T07:33:16;100572.84;;;-3.73;57.71
15880;BME280;61999;51.514;14.614;2023-01-27T07:35:48;100574.06;;;-3.32;57.18
15880;BME280;61999;51.514;14.614;2023-01-27T07:38:16;100579.19;;;-3.32;56.75
15880;BME280;61999;51.514;14.614;2023-01-27T07:40:44;100581.75;;;-3.29;57.08
15880;BME280;61999;51.514;14.614;2023-01-27T07:43:13;100584.19;;;-3.18;56.77
15880;BME280;61999;51.514;14.614;2023-01-27T07:45:42;100586.63;;;-3.09;56.59
15880;BME280;61999;51.514;14.614;2023-01-27T07:48:14;100584.66;;;-2.90;55.85
15880;BME280;61999;51.514;14.614;2023-01-27T07:50:42;100580.19;;;-2.81;56.25
15880;BME280;61999;51.514;14.614;2023-01-27T07:53:10;100594.06;;;-2.89;55.61
15880;BME280;61999;51.514;14.614;2023-01-27T07:55:38;100593.91;;;-2.79;55.95
15880;BME280;61999;51.514;14.614;2023-01-27T07:58:07;100603.31;;;-2.73;55.74
15880;BME280;61999;51.514;14.614;2023-01-27T08:00:35;100601.78;;;-2.86;56.15
15880;BME280;61999;51.514;14.614;2023-01-27T08:03:05;100605.34;;;-2.96;56.17
15880;BME280;61999;51.514;14.614;2023-01-27T08:05:34;100610.44;;;-2.92;55.71
15880;BME280;61999;51.514;14.614;2023-01-27T08:08:04;100608.53;;;-2.79;56.09
15880;BME280;61999;51.514;14.614;2023-01-27T08:10:32;100608.50;;;-2.78;56.12
15880;BME280;61999;51.514;14.614;2023-01-27T08:13:00;100605.28;;;-2.92;55.85
15880;BME280;61999;51.514;14.614;2023-01-27T08:15:28;100604.28;;;-2.82;56.10
15880;BME280;61999;51.514;14.614;2023-01-27T08:17:57;100606.69;;;-2.71;55.98
15880;BME280;61999;51.514;14.614;2023-01-27T08:20:27;100619.31;;;-3.10;56.73
15880;BME280;61999;51.514;14.614;2023-01-27T08:22:55;100630.72;;;-3.29;57.95
15880;BME280;61999;51.514;14.614;2023-01-27T08:25:24;100627.66;;;-2.92;57.10
15880;BME280;61999;51.514;14.614;2023-01-27T08:27:54;100622.16;;;-2.71;56.36
15880;BME280;61999;51.514;14.614;2023-01-27T08:30:23;100627.38;;;-2.74;56.63
15880;BME280;61999;51.514;14.614;2023-01-27T08:32:51;100634.03;;;-2.58;55.92
15880;BME280;61999;51.514;14.614;2023-01-27T08:35:19;100634.66;;;-3.01;57.50
15880;BME280;61999;51.514;14.614;2023-01-27T08:37:49;100633.38;;;-2.70;56.46
15880;BME280;61999;51.514;14.614;2023-01-27T08:40:17;100641.03;;;-2.66;56.09
15880;BME280;61999;51.514;14.614;2023-01-27T08:42:45;100633.91;;;-2.51;55.98
15880;BME280;61999;51.514;14.614;2023-01-27T08:45:13;100635.66;;;-2.53;56.20
15880;BME280;61999;51.514;14.614;2023-01-27T08:47:41;100634.97;;;-2.63;56.20
15880;BME280;61999;51.514;14.614;2023-01-27T08:50:10;100629.06;;;-2.71;56.05
15880;BME280;61999;51.514;14.614;2023-01-27T08:52:39;100637.38;;;-2.52;56.05
15880;BME280;61999;51.514;14.614;2023-01-27T08:55:08;100637.19;;;-2.39;56.56
15880;BME280;61999;51.514;14.614;2023-01-27T08:57:36;100641.59;;;-2.47;56.05
15880;BME280;61999;51.514;14.614;2023-01-27T09:00:07;100648.06;;;-2.77;57.04
15880;BME280;61999;51.514;14.614;2023-01-27T09:02:36;100649.47;;;-2.55;55.98
15880;BME280;61999;51.514;14.614;2023-01-27T09:05:04;100645.19;;;-2.57;55.94
15880;BME280;61999;51.514;14.614;2023-01-27T09:07:33;100647.88;;;-2.63;56.17
15880;BME280;61999;51.514;14.614;2023-01-27T09:10:02;100647.72;;;-2.52;56.32
15880;BME280;61999;51.514;14.614;2023-01-27T09:12:43;100651.25;;;-2.60;56.59
15880;BME280;61999;51.514;14.614;2023-01-27T09:15:13;100658.09;;;-2.56;56.06
15880;BME280;61999;51.514;14.614;2023-01-27T09:17:41;100657.06;;;-2.45;55.20
15880;BME280;61999;51.514;14.614;2023-01-27T09:20:10;100656.25;;;-2.50;55.31
15880;BME280;61999;51.514;14.614;2023-01-27T09:22:40;100656.38;;;-2.57;56.37
15880;BME280;61999;51.514;14.614;2023-01-27T09:25:13;100662.06;;;-2.36;55.73
15880;BME280;61999;51.514;14.614;2023-01-27T09:27:43;100655.78;;;-2.20;55.66
15880;BME280;61999;51.514;14.614;2023-01-27T09:30:14;100655.84;;;-2.23;55.45
15880;BME280;61999;51.514;14.614;2023-01-27T09:32:42;100661.88;;;-2.24;56.40
15880;BME280;61999;51.514;14.614;2023-01-27T09:35:10;100655.88;;;-2.26;55.77
15880;BME280;61999;51.514;14.614;2023-01-27T09:37:45;100652.53;;;-2.31;56.76
15880;BME280;61999;51.514;14.614;2023-01-27T09:40:28;100653.03;;;-2.62;57.45
15880;BME280;61999;51.514;14.614;2023-01-27T09:43:25;100659.88;;;-2.62;57.76
15880;BME280;61999;51.514;14.614;2023-01-27T09:46:21;100652.28;;;-2.71;57.80
15880;BME280;61999;51.514;14.614;2023-01-27T09:49:27;100656.56;;;-2.15;57.51
15880;BME280;61999;51.514;14.614;2023-01-27T09:52:24;100651.19;;;-2.02;56.32
15880;BME280;61999;51.514;14.614;2023-01-27T09:55:19;100653.47;;;-1.85;56.69
15880;BME280;61999;51.514;14.614;2023-01-27T09:58:00;100653.56;;;-1.90;57.11
15880;BME280;61999;51.514;14.614;2023-01-27T10:00:47;100660.38;;;-1.84;57.42
15880;BME280;61999;51.514;14.614;2023-01-27T10:03:42;100655.50;;;-2.01;58.64
15880;BME280;61999;51.514;14.614;2023-01-27T10:06:39;100649.09;;;-1.82;57.81
15880;BME280;61999;51.514;14.614;2023-01-27T10:12:40;100641.34;;;-1.82;56.80
15880;BME280;61999;51.514;14.614;2023-01-27T10:15:29;100648.34;;;-1.87;57.87
15880;BME280;61999;51.514;14.614;2023-01-27T10:18:14;100647.91;;;-1.61;56.86
15880;BME280;61999;51.514;14.614;2023-01-27T10:20:56;100643.28;;;-1.93;56.98
15880;BME280;61999;51.514;14.614;2023-01-27T10:23:42;100640.78;;;-1.99;57.24
15880;BME280;61999;51.514;14.614;2023-01-27T10:26:29;100643.00;;;-1.78;57.27
15880;BME280;61999;51.514;14.614;2023-01-27T10:29:08;100644.94;;;-1.89;57.00
15880;BME280;61999;51.514;14.614;2023-01-27T10:31:41;100653.88;;;-2.08;57.60
15880;BME280;61999;51.514;14.614;2023-01-27T10:34:26;100647.09;;;-2.14;57.83
15880;BME280;61999;51.514;14.614;2023-01-27T10:37:10;100651.84;;;-1.91;57.18
15880;BME280;61999;51.514;14.614;2023-01-27T10:39:51;100649.75;;;-1.71;57.44
15880;BME280;61999;51.514;14.614;2023-01-27T10:42:32;100650.47;;;-1.61;57.31
15880;BME280;61999;51.514;14.614;2023-01-27T10:45:23;100651.31;;;-1.60;56.40
15880;BME280;61999;51.514;14.614;2023-01-27T10:48:09;100657.72;;;-1.83;57.43
15880;BME280;61999;51.514;14.614;2023-01-27T10:50:46;100651.66;;;-1.79;57.24
15880;BME280;61999;51.514;14.614;2023-01-27T10:53:25;100658.03;;;-1.98;57.18
15880;BME280;61999;51.514;14.614;2023-01-27T10:56:02;100660.31;;;-1.81;57.04
15880;BME280;61999;51.514;14.614;2023-01-27T10:58:47;100657.44;;;-1.68;56.17
15880;BME280;61999;51.514;14.614;2023-01-27T11:01:29;100670.03;;;-1.97;57.16
15880;BME280;61999;51.514;14.614;2023-01-27T11:04:05;100663.91;;;-1.90;56.96
15880;BME280;61999;51.514;14.614;2023-01-27T11:06:42;100667.47;;;-1.97;57.44
15880;BME280;61999;51.514;14.614;2023-01-27T11:09:23;100665.59;;;-1.89;56.88
15880;BME280;61999;51.514;14.614;2023-01-27T11:11:56;100660.38;;;-1.84;56.91
15880;BME280;61999;51.514;14.614;2023-01-27T11:14:30;100660.66;;;-2.01;56.97
15880;BME280;61999;51.514;14.614;2023-01-27T11:17:13;100663.28;;;-2.04;57.32
15880;BME280;61999;51.514;14.614;2023-01-27T11:19:56;100655.09;;;-2.31;58.89
15880;BME280;61999;51.514;14.614;2023-01-27T11:22:36;100656.13;;;-1.89;57.90
15880;BME280;61999;51.514;14.614;2023-01-27T11:25:26;100660.59;;;-1.98;58.01
15880;BME280;61999;51.514;14.614;2023-01-27T11:28:16;100655.22;;;-1.86;57.81
15880;BME280;61999;51.514;14.614;2023-01-27T11:31:00;100656.84;;;-1.82;58.08
15880;BME280;61999;51.514;14.614;2023-01-27T11:33:45;100662.00;;;-1.79;58.09
15880;BME280;61999;51.514;14.614;2023-01-27T11:36:17;100659.34;;;-1.77;58.47
15880;BME280;61999;51.514;14.614;2023-01-27T11:38:46;100655.88;;;-2.26;59.75
15880;BME280;61999;51.514;14.614;2023-01-27T11:41:14;100654.19;;;-2.27;59.79
15880;BME280;61999;51.514;14.614;2023-01-27T11:43:42;100659.16;;;-2.15;60.33
15880;BME280;61999;51.514;14.614;2023-01-27T11:46:17;100649.44;;;-2.02;59.55
15880;BME280;61999;51.514;14.614;2023-01-27T11:48:49;100653.50;;;-1.87;59.49
15880;BME280;61999;51.514;14.614;2023-01-27T11:51:21;100658.69;;;-1.89;58.92
15880;BME280;61999;51.514;14.614;2023-01-27T11:54:42;100655.38;;;-1.95;59.33
15880;BME280;61999;51.514;14.614;2023-01-27T11:57:42;100638.88;;;-2.39;59.78
15880;BME280;61999;51.514;14.614;2023-01-27T12:00:21;100640.00;;;-2.01;59.47
15880;BME280;61999;51.514;14.614;2023-01-27T12:03:02;100639.13;;;-2.02;60.09
15880;BME280;61999;51.514;14.614;2023-01-27T12:05:37;100634.66;;;-1.92;59.78
15880;BME280;61999;51.514;14.614;2023-01-27T12:08:07;100631.34;;;-2.00;59.34
15880;BME280;61999;51.514;14.614;2023-01-27T12:10:40;100642.03;;;-2.22;60.74
15880;BME280;61999;51.514;14.614;2023-01-27T12:13:16;100635.63;;;-2.50;61.46
15880;BME280;61999;51.514;14.614;2023-01-27T12:15:51;100625.91;;;-2.33;61.48
15880;BME280;61999;51.514;14.614;2023-01-27T12:18:20;100622.16;;;-2.17;60.90
15880;BME280;61999;51.514;14.614;2023-01-27T12:20:58;100618.66;;;-2.13;60.49
15880;BME280;61999;51.514;14.614;2023-01-27T12:23:30;100627.25;;;-2.12;60.09
15880;BME280;61999;51.514;14.614;2023-01-27T12:26:05;100614.28;;;-2.07;60.76
15880;BME280;61999;51.514;14.614;2023-01-27T12:28:37;100620.97;;;-1.97;60.76
15880;BME280;61999;51.514;14.614;2023-01-27T12:31:10;100621.63;;;-1.88;60.74
15880;BME280;61999;51.514;14.614;2023-01-27T12:33:45;100620.84;;;-1.91;60.13
15880;BME280;61999;51.514;14.614;2023-01-27T12:36:20;100620.56;;;-1.76;60.11
15880;BME280;61999;51.514;14.614;2023-01-27T12:38:52;100620.41;;;-1.67;60.15
15880;BME280;61999;51.514;14.614;2023-01-27T12:41:24;100611.53;;;-1.53;59.61
15880;BME280;61999;51.514;14.614;2023-01-27T12:43:58;100618.34;;;-1.49;59.23
15880;BME280;61999;51.514;14.614;2023-01-27T12:46:34;100617.34;;;-1.42;58.70
15880;BME280;61999;51.514;14.614;2023-01-27T12:49:12;100619.13;;;-1.46;59.01
15880;BME280;61999;51.514;14.614;2023-01-27T12:51:49;100618.56;;;-1.58;59.35
15880;BME280;61999;51.514;14.614;2023-01-27T12:54:22;100626.75;;;-1.38;58.40
15880;BME280;61999;51.514;14.614;2023-01-27T12:56:54;100623.22;;;-1.34;58.49
15880;BME280;61999;51.514;14.614;2023-01-27T12:59:24;100624.06;;;-1.33;58.11
15880;BME280;61999;51.514;14.614;2023-01-27T13:02:00;100619.34;;;-1.55;58.24
15880;BME280;61999;51.514;14.614;2023-01-27T13:04:29;100628.94;;;-1.61;59.58
15880;BME280;61999;51.514;14.614;2023-01-27T13:07:05;100629.19;;;-1.75;58.91
15880;BME280;61999;51.514;14.614;2023-01-27T13:09:39;100633.09;;;-1.54;58.64
15880;BME280;61999;51.514;14.614;2023-01-27T13:12:20;100635.44;;;-1.42;58.99
15880;BME280;61999;51.514;14.614;2023-01-27T13:14:52;100628.44;;;-1.37;58.90
15880;BME280;61999;51.514;14.614;2023-01-27T13:17:35;100638.56;;;-1.71;59.06
15880;BME280;61999;51.514;14.614;2023-01-27T13:20:18;100635.56;;;-1.48;58.50